Time;durP1;ratioP1;P1;durP2;ratioP2;P2;SDS_P1;SDS_P2;PMS_P1;PMS_P2;Temp;Humidity;BMP_temperature;BMP_pressure;BME280_temperature;BME280_humidity;BME280_pressure;Samples;Min_cycle;Max_cycle;Signal;HPM_P1;HPM_P2
2022/09/01 00:01:47;;;;;;;4.63;2.17;;;26.80;99.90;;;;;;5051357;28;20051;-71
2022/09/01 00:04:16;;;;;;;9.02;3.03;;;26.80;99.90;;;;;;5050789;28;20049;-71
2022/09/01 00:06:42;;;;;;;7.13;2.20;;;26.70;99.90;;;;;;5050154;28;20028;-71
2022/09/01 00:09:15;;;;;;;3.47;2.13;;;26.70;99.90;;;;;;5050987;28;20334;-71
2022/09/01 00:11:43;;;;;;;4.90;2.63;;;26.70;99.90;;;;;;5050601;28;20060;-71
2022/09/01 00:14:10;;;;;;;7.07;2.58;;;26.70;99.90;;;;;;5050791;28;20088;-71
2022/09/01 00:16:36;;;;;;;5.97;2.42;;;26.70;99.90;;;;;;5050829;28;20450;-71
2022/09/01 00:19:04;;;;;;;5.68;2.28;;;26.60;99.90;;;;;;5050365;28;20097;-70
2022/09/01 00:21:34;;;;;;;4.80;2.30;;;26.60;99.90;;;;;;5050399;28;20033;-71
2022/09/01 00:24:01;;;;;;;5.78;2.20;;;26.60;99.90;;;;;;5050421;28;20108;-70
2022/09/01 00:26:27;;;;;;;5.72;2.70;;;26.60;99.90;;;;;;5050023;28;20449;-70
2022/09/01 00:28:53;;;;;;;7.15;2.55;;;26.60;99.90;;;;;;5050418;28;20029;-70
2022/09/01 00:31:21;;;;;;;6.53;2.50;;;26.50;99.90;;;;;;5050352;28;20166;-70
2022/09/01 00:33:47;;;;;;;6.07;2.20;;;26.50;99.90;;;;;;5050253;28;20090;-70
2022/09/01 00:36:15;;;;;;;6.40;2.40;;;26.50;99.90;;;;;;5050099;28;20033;-70
2022/09/01 00:38:41;;;;;;;7.82;2.78;;;26.40;99.90;;;;;;5050013;28;20108;-70
2022/09/01 00:41:07;;;;;;;5.13;2.63;;;26.40;99.90;;;;;;5049963;28;20029;-70
2022/09/01 00:43:38;;;;;;;;;;;26.30;99.90;;;;;;5048945;28;20114;-70
2022/09/01 00:46:14;;;;;;;7.45;2.78;;;26.30;99.90;;;;;;5049796;28;20372;-70
2022/09/01 00:48:40;;;;;;;7.30;2.87;;;26.30;99.90;;;;;;5050124;28;20049;-70
2022/09/01 00:51:09;;;;;;;4.63;2.60;;;26.30;99.90;;;;;;5049928;28;20037;-70
2022/09/01 00:53:37;;;;;;;6.07;2.50;;;26.30;99.90;;;;;;5049918;28;20029;-70
2022/09/01 00:56:05;;;;;;;8.88;2.80;;;26.20;99.90;;;;;;5049714;28;20025;-71
2022/09/01 00:58:33;;;;;;;5.60;3.00;;;26.20;99.90;;;;;;5049804;28;20082;-71
2022/09/01 01:01:00;;;;;;;7.38;2.88;;;26.20;99.90;;;;;;5049843;28;20473;-72
2022/09/01 01:03:29;;;;;;;7.43;2.80;;;26.20;99.90;;;;;;5049597;28;20025;-70
2022/09/01 01:05:58;;;;;;;7.60;2.30;;;26.20;99.90;;;;;;5049684;28;20104;-71
2022/09/01 01:08:34;;;;;;;5.03;2.60;;;26.20;99.90;;;;;;5049929;28;20112;-70
2022/09/01 01:11:03;;;;;;;5.07;2.55;;;26.20;99.90;;;;;;5049496;28;20445;-71
2022/09/01 01:13:34;;;;;;;5.30;2.20;;;26.20;99.90;;;;;;5049845;28;20057;-70
2022/09/01 01:16:02;;;;;;;6.05;2.65;;;26.20;99.90;;;;;;5049609;28;20469;-71
2022/09/01 01:18:28;;;;;;;4.35;2.10;;;26.20;99.90;;;;;;5049513;28;20047;-71
2022/09/01 01:24:19;;;;;;;7.05;2.67;;;26.20;99.90;;;;;;5049951;28;20450;-70
2022/09/01 01:26:46;;;;;;;8.73;2.70;;;26.10;99.90;;;;;;5049350;28;20083;-70
2022/09/01 01:29:14;;;;;;;7.60;2.58;;;26.10;99.90;;;;;;5049731;28;20033;-71
2022/09/01 01:31:40;;;;;;;4.22;2.30;;;26.10;99.90;;;;;;5049494;28;20123;-71
2022/09/01 01:34:07;;;;;;;8.77;2.28;;;26.00;99.90;;;;;;5049724;28;20082;-70
2022/09/01 01:36:36;;;;;;;4.20;2.28;;;26.00;99.90;;;;;;5049607;28;20116;-72
2022/09/01 01:39:11;;;;;;;6.40;2.40;;;25.90;99.90;;;;;;5049593;28;20098;-70
2022/09/01 01:42:11;;;;;;;5.45;2.42;;;25.90;99.90;;;;;;5049257;28;20036;-71
2022/09/01 01:44:37;;;;;;;6.55;2.10;;;25.90;99.90;;;;;;5049243;28;20035;-70
2022/09/01 01:47:11;;;;;;;4.32;2.00;;;25.90;99.90;;;;;;5049064;28;20039;-70
2022/09/01 01:49:42;;;;;;;5.70;2.35;;;25.80;99.90;;;;;;5049161;28;20025;-70
2022/09/01 01:52:16;;;;;;;4.05;2.20;;;25.90;99.90;;;;;;5049627;28;20056;-71
2022/09/01 01:54:44;;;;;;;6.65;2.50;;;25.80;99.90;;;;;;5049231;28;20348;-71
2022/09/01 01:57:14;;;;;;;6.65;2.42;;;25.80;99.90;;;;;;5049109;28;20052;-70
2022/09/01 01:59:40;;;;;;;7.03;2.20;;;25.80;99.90;;;;;;5049113;28;20033;-70
2022/09/01 02:02:07;;;;;;;8.40;2.72;;;25.80;99.90;;;;;;5049197;28;20035;-70
2022/09/01 02:04:34;;;;;;;5.28;2.40;;;25.80;99.90;;;;;;5048884;28;20033;-70
2022/09/01 02:07:00;;;;;;;;;;;25.80;99.90;;;;;;5049444;28;20154;-70
2022/09/01 02:09:26;;;;;;;4.93;2.03;;;25.80;99.90;;;;;;5048971;28;20288;-70
2022/09/01 02:11:56;;;;;;;6.82;2.17;;;25.80;99.90;;;;;;5048732;28;20029;-70
2022/09/01 02:14:22;;;;;;;7.70;2.42;;;25.80;99.90;;;;;;5049105;28;20032;-70
2022/09/01 02:16:48;;;;;;;4.38;2.40;;;25.80;99.90;;;;;;5049090;28;20026;-71
2022/09/01 02:19:18;;;;;;;;;;;25.80;99.90;;;;;;5049719;28;20354;-71
2022/09/01 02:21:54;;;;;;;6.78;2.50;;;25.80;99.90;;;;;;5048743;28;20345;-71
2022/09/01 02:24:22;;;;;;;5.32;2.38;;;25.80;99.90;;;;;;5048854;28;20469;-70
2022/09/01 02:26:49;;;;;;;4.43;2.40;;;25.80;99.90;;;;;;5048930;28;20099;-71
2022/09/01 02:29:20;;;;;;;5.55;2.40;;;25.70;99.90;;;;;;5049672;28;20469;-71
2022/09/01 02:31:56;;;;;;;4.72;2.70;;;25.70;99.90;;;;;;5052493;28;20048;-71
2022/09/01 02:34:24;;;;;;;10.52;3.90;;;25.70;99.90;;;;;;5052515;28;20029;-71
2022/09/01 02:36:53;;;;;;;8.05;3.65;;;25.60;99.90;;;;;;5052694;28;20091;-71
2022/09/01 02:39:24;;;;;;;7.32;3.47;;;25.70;99.90;;;;;;5052649;28;20031;-71
2022/09/01 02:41:51;;;;;;;6.85;3.00;;;25.60;99.90;;;;;;5050774;28;20035;-71
2022/09/01 02:44:18;;;;;;;;;;;25.60;99.90;;;;;;5052753;28;20067;-71
2022/09/01 02:46:45;;;;;;;8.18;2.97;;;25.70;99.90;;;;;;5052232;28;19951;-71
2022/09/01 02:49:16;;;;;;;6.07;2.60;;;25.70;99.90;;;;;;5052098;28;20021;-71
2022/09/01 02:51:48;;;;;;;6.82;2.70;;;25.70;99.90;;;;;;5052107;28;20076;-71
2022/09/01 02:54:16;;;;;;;8.02;2.33;;;25.80;99.90;;;;;;5052443;28;20021;-71
2022/09/01 02:56:45;;;;;;;6.35;2.60;;;25.80;99.90;;;;;;5052712;28;20094;-71
2022/09/01 02:59:11;;;;;;;3.95;2.50;;;25.80;99.90;;;;;;5052369;28;20021;-71
2022/09/01 03:01:38;;;;;;;6.30;2.50;;;25.80;99.90;;;;;;5051552;28;20390;-71
2022/09/01 03:04:08;;;;;;;6.75;2.40;;;25.80;99.90;;;;;;5052844;28;20025;-71
2022/09/01 03:06:36;;;;;;;7.63;2.45;;;25.80;99.90;;;;;;5053071;28;20140;-71
2022/09/01 03:09:05;;;;;;;5.97;2.40;;;25.80;99.90;;;;;;5052816;28;20036;-71
2022/09/01 03:11:33;;;;;;;9.13;2.42;;;25.80;99.90;;;;;;5052759;28;20060;-71
2022/09/01 03:14:00;;;;;;;8.77;2.65;;;25.90;99.90;;;;;;5053148;28;20025;-70
2022/09/01 03:16:29;;;;;;;6.75;2.90;;;25.90;99.90;;;;;;5051357;28;20119;-71
2022/09/01 03:18:55;;;;;;;5.10;2.50;;;25.90;99.90;;;;;;5052971;28;20178;-71
2022/09/01 03:21:22;;;;;;;;;;;25.90;99.90;;;;;;5053761;28;20426;-70
2022/09/01 03:23:49;;;;;;;7.63;2.90;;;25.90;99.90;;;;;;5053282;28;19904;-71
2022/09/01 03:26:18;;;;;;;5.10;2.65;;;25.90;99.90;;;;;;5053731;28;20031;-71
2022/09/01 03:28:45;;;;;;;7.68;2.58;;;25.90;99.90;;;;;;5053160;28;20065;-70
2022/09/01 03:31:11;;;;;;;9.30;2.65;;;25.80;99.90;;;;;;5053487;28;20108;-71
2022/09/01 03:33:37;;;;;;;5.57;2.58;;;25.80;99.90;;;;;;5053050;28;20041;-71
2022/09/01 03:36:05;;;;;;;6.63;2.50;;;25.90;99.90;;;;;;5053088;28;20108;-71
2022/09/01 03:38:32;;;;;;;5.68;2.28;;;25.90;99.90;;;;;;5053047;28;20102;-71
2022/09/01 03:41:02;;;;;;;7.63;2.58;;;25.90;99.90;;;;;;5052285;28;20055;-73
2022/09/01 03:43:29;;;;;;;4.57;2.38;;;25.90;99.90;;;;;;5052009;28;20025;-70
2022/09/01 03:45:59;;;;;;;10.88;3.17;;;25.80;99.90;;;;;;5052896;28;20025;-70
2022/09/01 03:48:27;;;;;;;7.25;3.20;;;25.80;99.90;;;;;;5052966;28;20095;-70
2022/09/01 03:50:55;;;;;;;5.93;2.70;;;25.80;99.90;;;;;;5052704;28;20017;-70
2022/09/01 03:53:26;;;;;;;6.00;2.85;;;25.70;99.90;;;;;;5052625;28;20045;-70
2022/09/01 03:55:53;;;;;;;5.05;2.53;;;25.80;99.90;;;;;;5052617;28;20153;-70
2022/09/01 03:58:20;;;;;;;6.90;2.65;;;25.70;99.90;;;;;;5052964;28;20108;-70
2022/09/01 04:00:54;;;;;;;7.70;2.67;;;25.80;99.90;;;;;;5052718;28;20100;-70
2022/09/01 04:03:23;;;;;;;6.85;2.28;;;25.70;99.90;;;;;;5052228;28;20512;-70
2022/09/01 04:05:54;;;;;;;9.60;2.60;;;25.70;99.90;;;;;;5052233;28;20064;-70
2022/09/01 04:08:28;;;;;;;8.07;2.28;;;25.60;99.90;;;;;;5052040;28;20104;-70
2022/09/01 04:10:54;;;;;;;4.70;2.55;;;25.60;99.90;;;;;;5052428;28;20449;-70
2022/09/01 04:13:26;;;;;;;6.28;2.20;;;25.60;99.90;;;;;;5052276;28;20040;-70
2022/09/01 04:15:55;;;;;;;7.63;2.88;;;25.60;99.90;;;;;;5052249;28;20021;-70
2022/09/01 04:18:22;;;;;;;4.20;2.47;;;25.60;99.90;;;;;;5053061;28;20358;-70
2022/09/01 04:20:53;;;;;;;8.98;2.90;;;25.60;99.90;;;;;;5053302;28;20025;-70
2022/09/01 04:23:39;;;;;;;6.15;2.50;;;25.50;99.90;;;;;;5054008;28;20021;-70
2022/09/01 04:26:10;;;;;;;7.53;2.60;;;25.50;99.90;;;;;;5053436;28;20024;-70
2022/09/01 04:28:37;;;;;;;6.40;2.25;;;25.40;99.90;;;;;;5053331;28;20048;-70
2022/09/01 04:31:08;;;;;;;7.35;2.70;;;25.40;99.90;;;;;;5052991;28;20029;-70
2022/09/01 04:33:38;;;;;;;11.13;2.42;;;25.50;99.90;;;;;;5053070;28;20037;-70
2022/09/01 04:36:12;;;;;;;4.88;2.40;;;25.40;99.90;;;;;;5053340;28;20028;-70
2022/09/01 04:38:38;;;;;;;5.90;2.60;;;25.50;99.90;;;;;;5053686;28;20021;-70
2022/09/01 04:41:05;;;;;;;6.28;2.80;;;25.50;99.90;;;;;;5053645;28;20381;-70
2022/09/01 04:43:35;;;;;;;6.97;2.47;;;25.50;99.90;;;;;;5053192;28;20056;-70
2022/09/01 04:46:02;;;;;;;10.02;3.00;;;25.60;99.90;;;;;;5053332;28;20024;-70
2022/09/01 04:48:30;;;;;;;;;;;25.50;99.90;;;;;;5053358;28;20355;-70
2022/09/01 04:50:57;;;;;;;9.23;2.72;;;25.50;99.90;;;;;;5053493;28;19905;-70
2022/09/01 04:53:23;;;;;;;5.60;2.70;;;25.50;99.90;;;;;;5052581;28;20040;-70
2022/09/01 04:55:51;;;;;;;10.55;2.85;;;25.50;99.90;;;;;;5052708;28;20021;-70
2022/09/01 04:58:18;;;;;;;11.18;3.20;;;25.40;99.90;;;;;;5052806;28;20057;-70
2022/09/01 05:00:54;;;;;;;12.38;3.13;;;25.50;99.90;;;;;;5052758;28;20068;-70
2022/09/01 05:03:22;;;;;;;11.30;3.40;;;25.60;99.90;;;;;;5052598;28;20091;-70
2022/09/01 05:05:49;;;;;;;11.20;2.90;;;25.80;99.90;;;;;;5052916;28;20052;-70
2022/09/01 05:08:16;;;;;;;;;;;25.80;99.90;;;;;;5053182;28;20031;-70
2022/09/01 05:10:51;;;;;;;6.47;2.55;;;25.90;99.90;;;;;;5052657;28;19904;-70
2022/09/01 05:13:21;;;;;;;7.10;2.50;;;26.00;99.90;;;;;;5052717;28;20036;-70
2022/09/01 05:16:00;;;;;;;6.50;2.38;;;26.20;99.90;;;;;;5052182;28;20111;-70
2022/09/01 05:18:27;;;;;;;6.03;2.47;;;26.30;99.90;;;;;;5052725;28;20087;-70
2022/09/01 05:20:56;;;;;;;6.35;2.30;;;26.50;99.90;;;;;;5052670;28;20017;-70
2022/09/01 05:23:22;;;;;;;5.93;2.30;;;26.90;99.90;;;;;;5052751;28;20017;-70
2022/09/01 05:25:53;;;;;;;8.35;2.50;;;27.40;99.90;;;;;;5052765;28;20028;-70
2022/09/01 05:28:24;;;;;;;7.80;2.42;;;27.60;99.90;;;;;;5052480;28;20076;-70
2022/09/01 05:30:53;;;;;;;15.63;2.45;;;28.20;99.90;;;;;;5052690;28;20025;-70
2022/09/01 05:33:20;;;;;;;7.38;2.47;;;28.50;99.90;;;;;;5052445;28;20029;-71
2022/09/01 05:36:00;;;;;;;8.00;2.13;;;28.90;99.90;;;;;;5052477;28;20388;-70
2022/09/01 05:38:26;;;;;;;4.63;2.00;;;29.30;99.90;;;;;;5052371;28;20534;-70
2022/09/01 05:41:03;;;;;;;4.70;1.90;;;29.70;99.60;;;;;;5052517;28;20095;-70
2022/09/01 05:43:30;;;;;;;6.43;2.10;;;30.20;99.00;;;;;;5052649;28;20076;-70
2022/09/01 05:46:00;;;;;;;7.05;1.95;;;30.90;98.40;;;;;;5052219;28;20059;-70
2022/09/01 05:48:30;;;;;;;5.97;1.98;;;31.50;97.60;;;;;;5052793;28;20130;-70
2022/09/01 05:50:58;;;;;;;5.70;1.50;;;31.80;97.20;;;;;;5052326;28;20025;-70
2022/09/01 05:53:27;;;;;;;5.78;1.50;;;31.90;96.70;;;;;;5051739;28;20048;-70
2022/09/01 05:55:55;;;;;;;5.03;1.73;;;32.40;96.20;;;;;;5052037;28;20079;-70
2022/09/01 05:58:23;;;;;;;4.63;1.50;;;32.70;96.00;;;;;;5051688;28;20029;-71
2022/09/01 06:00:50;;;;;;;9.13;1.73;;;33.40;95.20;;;;;;5052055;28;20082;-71
2022/09/01 06:03:17;;;;;;;4.78;1.70;;;33.80;94.90;;;;;;5052242;28;20052;-70
2022/09/01 06:05:51;;;;;;;5.88;2.00;;;33.50;94.50;;;;;;5055206;28;20029;-70
2022/09/01 06:08:19;;;;;;;8.43;1.77;;;33.20;94.60;;;;;;5056388;28;20029;-70
2022/09/01 06:10:45;;;;;;;7.82;1.90;;;33.00;95.10;;;;;;5055772;28;20409;-70
2022/09/01 06:13:14;;;;;;;11.00;1.77;;;33.80;94.40;;;;;;5055551;28;20044;-71
2022/09/01 06:15:41;;;;;;;4.78;1.58;;;34.80;93.40;;;;;;5055443;28;20405;-71
2022/09/01 06:18:11;;;;;;;6.53;1.80;;;36.00;92.40;;;;;;5055950;28;20033;-71
2022/09/01 06:20:45;;;;;;;9.10;1.58;;;36.80;91.40;;;;;;5056088;28;20086;-71
2022/09/01 06:23:14;;;;;;;6.97;1.50;;;37.70;90.60;;;;;;5056298;28;20456;-71
2022/09/01 06:25:44;;;;;;;9.27;2.28;;;38.60;89.30;;;;;;5055384;28;20083;-71
2022/09/01 06:28:13;;;;;;;5.13;1.48;;;39.30;87.90;;;;;;5055096;28;20061;-71
2022/09/01 06:30:41;;;;;;;8.77;1.60;;;40.50;86.20;;;;;;5055893;28;20092;-71
2022/09/01 06:33:09;;;;;;;8.45;1.80;;;41.40;83.90;;;;;;5055865;28;20036;-71
2022/09/01 06:35:39;;;;;;;8.60;2.60;;;41.40;83.00;;;;;;5055299;28;20558;-71
2022/09/01 06:38:06;;;;;;;8.63;2.40;;;41.50;83.00;;;;;;5054019;28;20068;-71
2022/09/01 06:40:34;;;;;;;9.18;1.70;;;41.80;83.60;;;;;;5055368;28;20024;-71
2022/09/01 06:43:01;;;;;;;10.50;1.90;;;42.30;82.90;;;;;;5055383;28;20021;-71
2022/09/01 06:45:27;;;;;;;6.95;1.80;;;42.70;82.00;;;;;;5055532;28;20021;-71
2022/09/01 06:47:54;;;;;;;10.05;2.10;;;43.30;81.20;;;;;;5055952;28;20068;-71
2022/09/01 06:50:22;;;;;;;9.38;1.80;;;43.80;80.10;;;;;;5055276;28;20017;-71
2022/09/01 06:52:59;;;;;;;8.90;1.70;;;44.40;78.30;;;;;;5055190;28;20068;-71
2022/09/01 06:55:30;;;;;;;9.82;1.95;;;44.70;75.60;;;;;;5055055;28;20025;-71
2022/09/01 06:57:57;;;;;;;16.48;1.90;;;45.10;73.60;;;;;;5055414;28;20427;-71
2022/09/01 07:00:25;;;;;;;13.90;2.30;;;45.60;72.60;;;;;;5054936;28;20071;-71
2022/09/01 07:02:57;;;;;;;7.25;1.50;;;45.70;71.10;;;;;;5055051;28;20029;-71
2022/09/01 07:05:24;;;;;;;9.00;1.90;;;45.60;70.50;;;;;;5052798;28;20116;-71
2022/09/01 07:07:54;;;;;;;6.15;1.40;;;45.70;70.10;;;;;;5055117;28;20118;-70
2022/09/01 07:10:26;;;;;;;6.07;1.70;;;44.80;72.90;;;;;;5046094;28;20432;-75
2022/09/01 07:12:55;;;;;;;6.65;1.70;;;44.10;74.40;;;;;;5034920;28;20454;-74
2022/09/01 07:15:22;;;;;;;9.38;2.03;;;44.50;72.60;;;;;;5034933;28;20017;-74
2022/09/01 07:17:55;;;;;;;6.15;1.70;;;44.70;71.60;;;;;;5046065;28;20028;-72
2022/09/01 07:20:25;;;;;;;10.70;1.83;;;45.00;70.20;;;;;;5035269;28;20026;-73
2022/09/01 07:22:52;;;;;;;18.50;2.90;;;42.60;74.10;;;;;;5035495;28;20030;-73
2022/09/01 07:25:19;;;;;;;20.63;3.00;;;43.20;73.40;;;;;;5035515;28;20053;-74
2022/09/01 07:27:49;;;;;;;12.90;2.50;;;43.30;74.40;;;;;;5035094;28;20391;-74
2022/09/01 07:30:20;;;;;;;147.52;15.52;;;42.80;72.90;;;;;;5035085;28;20549;-73
2022/09/01 07:32:49;;;;;;;21.00;3.25;;;41.80;75.00;;;;;;5035513;28;20033;-72
2022/09/01 07:35:21;;;;;;;20.52;2.88;;;40.90;75.20;;;;;;5034571;28;20025;-74
2022/09/01 07:37:50;;;;;;;17.58;2.33;;;39.90;77.30;;;;;;5035306;28;20021;-73
2022/09/01 07:40:21;;;;;;;19.40;3.30;;;38.50;78.40;;;;;;5035083;28;20022;-73
2022/09/01 07:42:53;;;;;;;32.03;4.15;;;38.60;80.60;;;;;;5033573;28;20116;-74
2022/09/01 07:45:19;;;;;;;7.57;2.03;;;37.90;81.30;;;;;;5035252;28;20466;-73
2022/09/01 07:47:45;;;;;;;8.82;2.20;;;37.50;82.90;;;;;;5035161;28;20100;-72
2022/09/01 07:50:14;;;;;;;24.85;3.63;;;37.20;84.20;;;;;;5033858;28;20041;-70
2022/09/01 07:52:42;;;;;;;22.20;3.55;;;36.90;85.40;;;;;;5033740;28;20033;-70
2022/09/01 07:55:11;;;;;;;9.13;2.17;;;37.00;86.60;;;;;;5033142;28;20029;-70
2022/09/01 07:57:41;;;;;;;6.90;2.38;;;36.90;84.90;;;;;;5033408;28;20025;-70
2022/09/01 08:00:13;;;;;;;12.32;2.65;;;36.20;86.40;;;;;;5034164;28;20029;-70
2022/09/01 08:02:43;;;;;;;10.30;2.38;;;36.10;87.30;;;;;;5033104;28;20029;-70
2022/09/01 08:05:12;;;;;;;8.80;2.63;;;36.10;88.10;;;;;;5033500;28;20082;-69
2022/09/01 08:07:39;;;;;;;9.35;2.47;;;35.70;89.50;;;;;;5033515;28;20025;-70
2022/09/01 08:10:07;;;;;;;6.05;2.22;;;35.70;90.20;;;;;;5033444;28;20339;-68
2022/09/01 08:12:35;;;;;;;10.25;2.40;;;35.70;90.60;;;;;;5033654;28;20040;-67
2022/09/01 08:15:03;;;;;;;8.25;2.40;;;35.90;90.70;;;;;;5033224;28;20041;-73
2022/09/01 08:17:29;;;;;;;12.20;2.33;;;36.20;90.70;;;;;;5032263;28;20370;-73
2022/09/01 08:19:55;;;;;;;27.90;3.00;;;36.10;91.10;;;;;;5032674;28;20454;-73
2022/09/01 08:22:24;;;;;;;9.00;2.15;;;35.90;91.30;;;;;;5032159;28;20029;-72
2022/09/01 08:24:51;;;;;;;11.00;2.80;;;35.50;91.80;;;;;;5033649;28;20040;-73
2022/09/01 08:27:17;;;;;;;9.75;2.40;;;35.30;91.90;;;;;;5032781;28;20053;-73
2022/09/01 08:29:43;;;;;;;7.85;2.85;;;35.40;92.20;;;;;;5033517;28;20053;-72
2022/09/01 08:32:10;;;;;;;9.77;2.33;;;35.30;92.60;;;;;;5033383;28;20030;-73
2022/09/01 08:34:36;;;;;;;6.78;2.28;;;35.30;92.90;;;;;;5033855;28;20116;-73
2022/09/01 08:37:04;;;;;;;8.65;2.28;;;35.00;93.50;;;;;;5033309;28;20025;-73
2022/09/01 08:39:31;;;;;;;18.85;12.15;;;34.90;93.20;;;;;;5033840;28;20017;-73
2022/09/01 08:42:15;;;;;;;8.98;2.20;;;34.90;93.50;;;;;;5033190;28;20041;-73
2022/09/01 08:44:56;;;;;;;8.82;2.10;;;34.80;94.00;;;;;;5033931;28;20462;-72
2022/09/01 08:47:22;;;;;;;8.27;2.40;;;34.50;94.30;;;;;;5033379;28;20097;-72
2022/09/01 08:49:49;;;;;;;6.32;2.15;;;34.20;94.40;;;;;;5033609;28;20347;-73
2022/09/01 08:52:26;;;;;;;12.23;3.03;;;34.00;94.30;;;;;;5031537;28;20132;-73
2022/09/01 08:55:11;;;;;;;8.02;2.20;;;34.10;94.50;;;;;;5032562;28;20053;-73
2022/09/01 08:57:40;;;;;;;9.27;2.10;;;34.20;94.40;;;;;;5031037;28;20021;-72
2022/09/01 09:00:10;;;;;;;10.82;2.20;;;34.30;94.00;;;;;;5032206;28;20025;-73
2022/09/01 09:03:12;;;;;;;8.20;2.10;;;34.10;93.80;;;;;;5032053;28;20025;-72
2022/09/01 09:05:47;;;;;;;13.15;2.92;;;34.20;93.90;;;;;;5032508;28;20038;-72
2022/09/01 09:08:28;;;;;;;10.10;2.60;;;34.20;93.30;;;;;;5032744;28;20454;-72
2022/09/01 09:11:12;;;;;;;6.97;1.95;;;33.50;93.80;;;;;;5032488;28;20030;-72
2022/09/01 09:14:02;;;;;;;18.70;2.92;;;33.50;93.70;;;;;;5032460;28;20042;-72
2022/09/01 09:16:38;;;;;;;15.55;2.35;;;33.10;94.20;;;;;;5032431;28;20025;-72
2022/09/01 09:19:10;;;;;;;13.38;2.10;;;33.10;92.60;;;;;;5032384;28;20374;-72
2022/09/01 09:21:42;;;;;;;10.05;2.13;;;33.30;92.50;;;;;;5032348;28;20125;-72
2022/09/01 09:24:27;;;;;;;12.45;2.20;;;33.60;91.60;;;;;;5032259;28;20038;-72
2022/09/01 09:26:57;;;;;;;14.77;2.50;;;33.70;91.40;;;;;;5032055;28;20033;-72
2022/09/01 09:29:26;;;;;;;12.13;2.38;;;33.80;91.20;;;;;;5032008;28;20095;-72
2022/09/01 09:32:09;;;;;;;12.52;2.10;;;33.90;91.50;;;;;;5031646;28;20025;-72
2022/09/01 09:34:38;;;;;;;11.15;1.98;;;34.10;91.70;;;;;;5032077;28;20116;-72
2022/09/01 09:37:26;;;;;;;11.18;1.80;;;34.00;91.60;;;;;;5031827;28;20024;-72
2022/09/01 09:40:15;;;;;;;10.98;2.13;;;34.10;91.80;;;;;;5033923;28;20471;-72
2022/09/01 09:42:53;;;;;;;11.13;2.05;;;34.20;92.50;;;;;;5036262;28;20037;-72
2022/09/01 09:45:37;;;;;;;7.82;1.70;;;34.00;92.80;;;;;;5035862;28;20374;-72
2022/09/01 09:48:12;;;;;;;12.05;1.90;;;34.00;94.80;;;;;;5035533;28;20037;-72
2022/09/01 09:50:42;;;;;;;13.07;2.17;;;34.00;95.90;;;;;;5035650;28;20160;-73
2022/09/01 09:53:28;;;;;;;10.20;1.95;;;33.70;96.70;;;;;;5035425;28;20496;-73
2022/09/01 09:56:01;;;;;;;10.48;2.72;;;33.60;97.30;;;;;;5035419;28;20032;-72
2022/09/01 09:58:38;;;;;;;13.98;2.10;;;33.60;96.50;;;;;;5035459;28;20044;-72
2022/09/01 10:01:15;;;;;;;8.40;2.45;;;33.50;95.70;;;;;;5035575;28;20033;-72
2022/09/01 10:03:53;;;;;;;12.55;2.10;;;33.70;93.50;;;;;;5035240;28;20025;-72
2022/09/01 10:07:12;;;;;;;11.93;2.13;;;33.70;91.90;;;;;;5035158;28;20053;-72
2022/09/01 10:09:38;;;;;;;10.20;2.10;;;33.80;91.30;;;;;;5033955;28;20087;-72
2022/09/01 10:12:04;;;;;;;;;;;33.70;91.30;;;;;;5035756;28;20397;-72
2022/09/01 10:14:41;;;;;;;10.60;1.95;;;33.60;90.00;;;;;;5033668;28;19958;-72
2022/09/01 10:17:33;;;;;;;15.30;2.20;;;33.70;88.90;;;;;;5035457;28;20109;-72
2022/09/01 10:20:22;;;;;;;11.23;2.28;;;33.80;89.50;;;;;;5035462;28;20029;-72
2022/09/01 10:22:50;;;;;;;11.63;1.92;;;33.80;88.60;;;;;;5035908;28;20229;-73
2022/09/01 10:25:25;;;;;;;10.70;2.05;;;33.80;89.40;;;;;;5035459;28;20060;-72
2022/09/01 10:27:58;;;;;;;8.18;2.13;;;33.60;90.10;;;;;;5035118;28;20046;-72
2022/09/01 10:30:24;;;;;;;11.32;2.30;;;33.80;90.00;;;;;;5035199;28;20478;-72
2022/09/01 10:32:57;;;;;;;11.15;2.15;;;34.00;89.70;;;;;;5035555;28;20080;-72
2022/09/01 10:35:30;;;;;;;9.30;1.80;;;34.00;90.10;;;;;;5035532;28;20022;-72
2022/09/01 10:37:59;;;;;;;8.13;1.92;;;33.90;89.40;;;;;;5035195;28;20048;-72
2022/09/01 10:40:28;;;;;;;12.80;2.10;;;33.80;90.00;;;;;;5034865;28;20436;-72
2022/09/01 10:42:56;;;;;;;11.05;1.95;;;33.70;90.80;;;;;;5034918;28;20060;-72
2022/09/01 10:45:30;;;;;;;7.55;1.90;;;33.40;92.20;;;;;;5034878;28;20466;-72
2022/09/01 10:48:19;;;;;;;15.88;2.10;;;33.30;93.70;;;;;;5035199;28;20036;-72
2022/09/01 10:50:47;;;;;;;6.45;1.80;;;33.30;94.90;;;;;;5033474;28;20022;-72
2022/09/01 10:53:32;;;;;;;11.73;1.60;;;33.30;95.00;;;;;;5034072;28;20030;-72
2022/09/01 10:56:21;;;;;;;8.93;1.60;;;33.10;95.70;;;;;;5034165;28;20053;-72
2022/09/01 10:58:59;;;;;;;9.75;1.95;;;33.10;96.40;;;;;;5034227;28;20100;-72
2022/09/01 11:02:09;;;;;;;9.95;2.00;;;33.10;96.80;;;;;;5034671;28;20021;-72
2022/09/01 11:04:40;;;;;;;12.93;2.20;;;33.00;97.30;;;;;;5034038;28;20120;-72
2022/09/01 11:07:24;;;;;;;9.82;1.90;;;33.10;96.90;;;;;;5034165;28;20036;-72
2022/09/01 11:10:27;;;;;;;11.77;2.22;;;32.90;97.50;;;;;;5034615;28;20371;-72
2022/09/01 11:13:23;;;;;;;7.22;2.03;;;32.90;97.40;;;;;;5033916;28;20547;-72
2022/09/01 11:15:49;;;;;;;17.65;2.63;;;32.80;97.80;;;;;;5033988;28;20112;-72
2022/09/01 11:18:17;;;;;;;;;;;32.80;98.30;;;;;;5035025;28;20026;-72
2022/09/01 11:20:44;;;;;;;7.03;1.65;;;32.90;98.50;;;;;;5034908;28;19905;-72
2022/09/01 11:23:29;;;;;;;11.88;2.30;;;32.90;98.90;;;;;;5035075;28;20022;-72
2022/09/01 11:26:03;;;;;;;9.73;2.00;;;33.20;98.70;;;;;;5034816;28;20022;-72
2022/09/01 11:28:33;;;;;;;14.50;2.38;;;32.90;99.00;;;;;;5034483;28;20056;-72
2022/09/01 11:31:05;;;;;;;18.00;2.40;;;33.00;98.80;;;;;;5035127;28;20021;-72
2022/09/01 11:33:57;;;;;;;13.90;2.33;;;33.00;98.30;;;;;;5034623;28;20041;-72
2022/09/01 11:36:34;;;;;;;14.52;2.75;;;32.80;98.90;;;;;;5034516;28;20033;-73
2022/09/01 11:39:08;;;;;;;15.90;2.45;;;32.90;99.20;;;;;;5034922;28;20037;-72
2022/09/01 11:41:40;;;;;;;13.38;2.83;;;32.90;99.30;;;;;;5034368;28;20026;-72
2022/09/01 11:44:30;;;;;;;10.55;2.72;;;32.70;99.10;;;;;;5034611;28;20026;-72
2022/09/01 11:47:07;;;;;;;20.15;2.88;;;32.80;99.50;;;;;;5034705;28;20027;-72
2022/09/01 11:49:36;;;;;;;15.43;2.58;;;32.70;99.70;;;;;;5034538;28;20040;-72
2022/09/01 11:52:04;;;;;;;14.90;2.47;;;32.50;99.90;;;;;;5034024;28;20021;-72
2022/09/01 11:54:41;;;;;;;14.60;2.60;;;32.60;99.90;;;;;;5034301;28;20029;-72
2022/09/01 11:57:24;;;;;;;11.77;2.65;;;32.80;99.90;;;;;;5033991;28;20020;-72
2022/09/01 11:59:51;;;;;;;21.27;2.90;;;32.70;99.90;;;;;;5034177;28;20026;-72
2022/09/01 12:02:21;;;;;;;15.57;2.38;;;32.70;99.90;;;;;;5033002;28;20021;-72
2022/09/01 12:04:49;;;;;;;13.68;2.85;;;32.80;99.70;;;;;;5034335;28;20032;-72
2022/09/01 12:07:43;;;;;;;13.98;2.47;;;32.90;99.90;;;;;;5033293;28;20470;-72
2022/09/01 12:10:21;;;;;;;18.83;2.87;;;33.00;99.70;;;;;;5031111;28;20060;-72
2022/09/01 12:12:47;;;;;;;13.52;2.60;;;33.10;99.70;;;;;;5034294;28;20033;-72
2022/09/01 12:15:25;;;;;;;;;;;32.90;99.90;;;;;;5034387;28;20043;-72
2022/09/01 12:17:52;;;;;;;15.50;2.65;;;32.90;99.90;;;;;;5034006;28;19928;-73
2022/09/01 12:20:24;;;;;;;16.67;2.85;;;32.90;99.90;;;;;;5033862;28;20053;-71
2022/09/01 12:22:50;;;;;;;16.02;2.70;;;33.00;99.90;;;;;;5033532;28;20033;-71
2022/09/01 12:25:34;;;;;;;;;;;33.00;99.90;;;;;;5033777;28;20080;-71
2022/09/01 12:28:03;;;;;;;15.52;2.53;;;33.00;99.90;;;;;;5033652;28;19917;-72
2022/09/01 12:30:34;;;;;;;15.73;2.80;;;32.90;99.90;;;;;;5033674;28;20024;-72
2022/09/01 12:33:03;;;;;;;14.32;2.88;;;33.00;99.90;;;;;;5033944;28;20484;-72
2022/09/01 12:35:29;;;;;;;21.23;2.70;;;33.00;99.90;;;;;;5033487;28;20026;-72
2022/09/01 12:38:19;;;;;;;20.48;3.38;;;33.00;99.90;;;;;;5031648;28;20033;-73
2022/09/01 12:40:52;;;;;;;19.88;2.90;;;33.10;99.90;;;;;;5033944;28;20450;-72
2022/09/01 12:43:34;;;;;;;19.00;2.35;;;33.00;99.90;;;;;;5032187;28;20053;-72
2022/09/01 12:46:03;;;;;;;17.10;3.03;;;32.70;99.90;;;;;;5033662;28;20091;-72
2022/09/01 12:48:34;;;;;;;22.50;2.97;;;32.50;99.90;;;;;;5033254;28;20171;-72
2022/09/01 12:51:18;;;;;;;27.48;3.53;;;32.50;99.90;;;;;;5033513;28;20378;-72
2022/09/01 12:53:52;;;;;;;16.70;2.92;;;32.70;99.90;;;;;;5033016;28;20044;-72
2022/09/01 12:56:31;;;;;;;19.98;3.08;;;32.40;99.90;;;;;;5031460;28;20025;-73
2022/09/01 12:59:11;;;;;;;22.60;3.28;;;32.30;99.90;;;;;;5032947;28;20033;-72
2022/09/01 13:01:40;;;;;;;26.13;3.78;;;32.20;99.90;;;;;;5033071;28;20315;-72
2022/09/01 13:04:20;;;;;;;19.52;3.10;;;32.30;99.90;;;;;;5032662;28;20485;-71
2022/09/01 13:06:46;;;;;;;15.70;2.83;;;32.30;99.90;;;;;;5032956;28;20026;-72
2022/09/01 13:09:12;;;;;;;29.13;4.07;;;32.50;99.90;;;;;;5032570;28;20026;-72
2022/09/01 13:11:41;;;;;;;16.80;2.47;;;32.50;99.90;;;;;;5032909;28;20033;-72